createdAt,value
2023-10-27T00:02:28.417Z,47.95
2023-10-27T00:05:31.818Z,47.44
2023-10-27T00:08:35.065Z,47.24
2023-10-27T00:11:38.214Z,47.28
2023-10-27T00:14:42.715Z,47.30
2023-10-27T00:17:46.014Z,47.56
2023-10-27T00:20:49.127Z,47.58
2023-10-27T00:23:52.401Z,47.41
2023-10-27T00:26:55.497Z,47.74
2023-10-27T00:29:59.958Z,47.14
2023-10-27T00:33:03.161Z,46.93
2023-10-27T00:36:07.574Z,47.54
2023-10-27T00:39:10.720Z,47.38
2023-10-27T00:42:13.854Z,47.61
2023-10-27T00:45:18.356Z,47.35
2023-10-27T00:48:23.078Z,47.76
2023-10-27T00:51:26.165Z,47.78
2023-10-27T00:54:30.048Z,47.38
2023-10-27T00:57:34.491Z,47.62
2023-10-27T01:00:40.366Z,47.46
2023-10-27T01:03:44.188Z,47.64
2023-10-27T01:06:47.627Z,47.66
2023-10-27T01:09:50.756Z,47.77
2023-10-27T01:12:53.813Z,47.87
2023-10-27T01:15:58.290Z,47.84
2023-10-27T01:19:01.732Z,47.71
2023-10-27T01:22:05.297Z,47.64
2023-10-27T01:25:10.483Z,47.76
2023-10-27T01:28:13.699Z,47.65
2023-10-27T01:31:16.843Z,47.51
2023-10-27T01:34:20.665Z,47.72
2023-10-27T01:37:23.859Z,47.61
2023-10-27T01:40:28.377Z,47.91
2023-10-27T01:43:31.529Z,47.76
2023-10-27T01:46:34.779Z,47.24
2023-10-27T01:49:37.947Z,47.72
2023-10-27T01:52:42.409Z,47.61
2023-10-27T01:55:46.875Z,47.92
2023-10-27T01:58:50.074Z,48.02
2023-10-27T02:01:53.125Z,47.56
2023-10-27T02:04:56.335Z,47.96
2023-10-27T02:08:00.039Z,47.70
2023-10-27T02:11:04.918Z,47.79
2023-10-27T02:14:08.069Z,47.57
2023-10-27T02:17:12.588Z,47.69
2023-10-27T02:20:15.702Z,47.68
2023-10-27T02:23:18.797Z,47.99
2023-10-27T02:26:23.372Z,47.85
2023-10-27T02:29:26.613Z,48.08
2023-10-27T02:32:29.721Z,47.91
2023-10-27T02:35:32.870Z,48.03
2023-10-27T02:38:35.929Z,47.90
2023-10-27T02:41:40.636Z,48.34
2023-10-27T02:44:44.035Z,47.86
2023-10-27T02:47:47.393Z,47.88
2023-10-27T02:50:50.737Z,47.89
2023-10-27T02:53:53.809Z,48.42
2023-10-27T02:56:58.428Z,48.26
2023-10-27T03:00:01.641Z,47.92
2023-10-27T03:03:04.765Z,47.89
2023-10-27T03:06:08.219Z,48.23
2023-10-27T03:09:11.375Z,48.08
2023-10-27T03:12:17.835Z,48.00
2023-10-27T03:15:21.003Z,48.19
2023-10-27T03:18:24.680Z,47.99
2023-10-27T03:21:27.818Z,48.40
2023-10-27T03:24:30.959Z,48.99
2023-10-27T03:27:36.162Z,49.03
2023-10-27T03:30:39.443Z,48.50
2023-10-27T03:33:42.566Z,49.02
2023-10-27T03:36:45.700Z,49.67
2023-10-27T03:39:48.893Z,49.65
2023-10-27T03:42:53.463Z,49.92
2023-10-27T03:45:56.595Z,49.77
2023-10-27T03:48:59.768Z,48.92
2023-10-27T03:52:02.920Z,49.47
2023-10-27T03:55:08.807Z,49.33
2023-10-27T03:58:16.599Z,49.29
2023-10-27T04:01:20.095Z,50.12
2023-10-27T04:04:23.385Z,50.15
2023-10-27T04:07:26.665Z,49.76
2023-10-27T04:10:33.241Z,50.26
2023-10-27T04:13:37.787Z,49.66
2023-10-27T04:16:40.960Z,50.16
2023-10-27T04:19:45.714Z,50.04
2023-10-27T04:22:48.990Z,50.10
2023-10-27T04:25:52.686Z,49.98
2023-10-27T04:28:57.190Z,49.13
2023-10-27T04:32:00.330Z,49.04
2023-10-27T04:35:03.542Z,49.05
2023-10-27T04:38:06.625Z,49.00
2023-10-27T04:41:10.735Z,48.98
2023-10-27T04:44:15.129Z,49.17
2023-10-27T04:47:18.492Z,48.68
2023-10-27T04:50:21.675Z,48.87
2023-10-27T04:53:24.864Z,48.97
2023-10-27T04:56:27.988Z,49.25
2023-10-27T04:59:32.492Z,49.10
2023-10-27T05:02:35.555Z,48.74
2023-10-27T05:05:38.682Z,48.97
2023-10-27T05:08:41.769Z,48.96
2023-10-27T05:11:46.851Z,48.54
2023-10-27T05:14:51.348Z,48.64
2023-10-27T05:17:54.650Z,48.69
2023-10-27T05:20:57.869Z,48.67
2023-10-27T05:24:02.460Z,48.69
2023-10-27T05:27:05.849Z,48.40
2023-10-27T05:30:11.366Z,48.29
2023-10-27T05:33:14.561Z,48.71
2023-10-27T05:36:17.637Z,48.52
2023-10-27T05:39:21.623Z,48.23
2023-10-27T05:42:24.816Z,48.22
2023-10-27T05:45:29.279Z,48.32
2023-10-27T05:48:32.444Z,48.18
2023-10-27T05:51:36.083Z,48.50
2023-10-27T05:54:39.248Z,48.26
2023-10-27T05:57:45.538Z,48.05
2023-10-27T06:00:50.888Z,48.30
2023-10-27T06:03:55.218Z,47.99
2023-10-27T06:06:58.331Z,47.99
2023-10-27T06:10:01.609Z,48.16
2023-10-27T06:13:05.101Z,47.89
2023-10-27T06:16:10.106Z,47.95
2023-10-27T06:19:13.266Z,47.74
2023-10-27T06:22:16.620Z,48.32
2023-10-27T06:25:20.271Z,48.10
2023-10-27T06:28:23.559Z,48.30
2023-10-27T06:31:28.595Z,48.13
2023-10-27T06:34:31.997Z,47.99
2023-10-27T06:37:36.477Z,48.05
2023-10-27T06:40:39.667Z,48.41
2023-10-27T06:43:42.709Z,48.22
2023-10-27T06:46:47.205Z,48.20
2023-10-27T06:49:50.346Z,48.36
2023-10-27T06:52:53.501Z,48.40
2023-10-27T06:55:56.529Z,48.25
2023-10-27T06:59:00.040Z,48.21
2023-10-27T07:02:04.913Z,48.10
2023-10-27T07:05:10.276Z,48.51
2023-10-27T07:08:13.487Z,48.21
2023-10-27T07:11:16.650Z,48.52
2023-10-27T07:14:19.694Z,48.40
2023-10-27T07:17:24.361Z,47.96
2023-10-27T07:20:27.671Z,48.21
2023-10-27T07:23:31.931Z,48.33
2023-10-27T07:26:34.995Z,48.16
2023-10-27T07:29:38.123Z,47.88
2023-10-27T07:32:42.653Z,48.44
2023-10-27T07:35:47.679Z,48.31
2023-10-27T07:38:51.586Z,48.41
2023-10-27T07:41:54.668Z,48.29
2023-10-27T07:45:00.637Z,48.42
2023-10-27T07:48:06.751Z,48.16
2023-10-27T07:51:10.015Z,47.96
2023-10-27T07:54:13.146Z,48.49
2023-10-27T07:57:16.255Z,47.95
2023-10-27T08:00:19.824Z,48.19
2023-10-27T08:03:25.655Z,47.86
2023-10-27T08:06:29.400Z,48.41
2023-10-27T08:09:32.829Z,48.23
2023-10-27T08:12:36.065Z,47.99
2023-10-27T08:15:39.404Z,47.85
2023-10-27T08:18:44.165Z,47.87
2023-10-27T08:21:49.934Z,48.08
2023-10-27T08:24:53.057Z,47.79
2023-10-27T08:27:56.206Z,48.01
2023-10-27T08:30:59.323Z,47.94
2023-10-27T08:34:05.437Z,47.83
2023-10-27T08:37:08.547Z,48.00
2023-10-27T08:40:13.737Z,48.11
2023-10-27T08:43:17.340Z,48.34
2023-10-27T08:46:20.668Z,48.21
2023-10-27T08:49:25.310Z,47.97
2023-10-27T08:52:29.204Z,48.38
2023-10-27T08:55:33.457Z,47.93
2023-10-27T08:58:37.139Z,48.43
2023-10-27T09:01:40.264Z,47.80
2023-10-27T09:04:46.039Z,48.50
2023-10-27T09:07:49.550Z,47.75
2023-10-27T09:10:53.089Z,48.12
2023-10-27T09:13:56.221Z,47.99
2023-10-27T09:17:07.832Z,47.66
2023-10-27T09:20:13.458Z,47.75
2023-10-27T09:23:16.667Z,48.35
2023-10-27T09:26:19.713Z,47.74
2023-10-27T09:29:23.572Z,48.08
2023-10-27T09:32:27.668Z,47.54
2023-10-27T09:35:32.257Z,47.72
2023-10-27T09:38:35.329Z,47.72
2023-10-27T09:41:42.303Z,47.41
2023-10-27T09:44:53.252Z,47.45
2023-10-27T09:48:03.509Z,47.80
2023-10-27T09:51:13.182Z,47.47
2023-10-27T09:54:16.448Z,47.55
2023-10-27T09:57:19.878Z,47.65
2023-10-27T10:00:26.212Z,47.83
2023-10-27T10:03:29.826Z,47.83
2023-10-27T10:06:48.666Z,47.85
2023-10-27T10:09:54.104Z,47.44
2023-10-27T10:13:09.210Z,47.55
2023-10-27T10:16:12.632Z,46.96
2023-10-27T10:19:51.383Z,46.82
2023-10-27T10:22:58.875Z,46.97
2023-10-27T10:26:02.869Z,47.07
2023-10-27T10:29:30.891Z,46.91
2023-10-27T10:32:37.701Z,47.29
2023-10-27T10:35:41.206Z,46.92
2023-10-27T10:38:46.989Z,47.22
2023-10-27T10:42:06.165Z,47.28
2023-10-27T10:45:09.459Z,46.84
2023-10-27T10:48:12.559Z,47.01
2023-10-27T10:51:20.380Z,47.05
2023-10-27T10:54:29.722Z,47.16
2023-10-27T10:57:32.790Z,47.16
2023-10-27T11:00:36.560Z,46.57
2023-10-27T11:03:39.626Z,46.90
2023-10-27T11:06:42.712Z,46.31
2023-10-27T11:09:47.211Z,46.27
2023-10-27T11:12:50.403Z,46.52
2023-10-27T11:15:53.609Z,45.92
2023-10-27T11:18:58.841Z,46.07
2023-10-27T11:22:01.974Z,46.05
2023-10-27T11:25:07.478Z,46.20
2023-10-27T11:28:23.336Z,45.65
2023-10-27T11:31:28.558Z,45.77
2023-10-27T11:34:35.277Z,45.86
2023-10-27T11:37:39.909Z,45.75
2023-10-27T11:40:44.441Z,46.15
2023-10-27T11:43:48.191Z,46.17
2023-10-27T11:46:53.104Z,45.58
2023-10-27T11:49:56.257Z,45.84
2023-10-27T11:52:59.740Z,45.97
2023-10-27T11:56:07.721Z,45.75
2023-10-27T11:59:11.709Z,45.44
2023-10-27T12:02:17.113Z,45.91
2023-10-27T12:05:20.293Z,45.68
2023-10-27T12:08:23.454Z,45.60
2023-10-27T12:11:29.151Z,45.59
2023-10-27T12:14:32.241Z,45.37
2023-10-27T12:17:35.758Z,45.65
2023-10-27T12:20:40.825Z,45.84
2023-10-27T12:23:44.338Z,45.49
2023-10-27T12:26:48.805Z,45.44
2023-10-27T12:29:51.905Z,45.73
2023-10-27T12:32:55.419Z,45.83
2023-10-27T12:35:58.482Z,45.35
2023-10-27T12:39:03.316Z,45.16
2023-10-27T12:42:09.280Z,45.52
2023-10-27T12:45:14.293Z,45.91
2023-10-27T12:48:18.001Z,45.33
2023-10-27T12:51:21.091Z,45.16
2023-10-27T12:54:24.135Z,45.43
2023-10-27T12:57:28.587Z,45.75
2023-10-27T13:00:33.153Z,45.90
2023-10-27T13:03:36.444Z,45.68
2023-10-27T13:06:39.946Z,45.51
2023-10-27T13:09:43.186Z,45.26
2023-10-27T13:12:47.816Z,45.29
2023-10-27T13:15:51.078Z,45.58
2023-10-27T13:18:54.241Z,45.58
2023-10-27T13:21:57.424Z,45.89
2023-10-27T13:25:00.730Z,45.77
2023-10-27T13:28:05.406Z,45.44
2023-10-27T13:31:08.705Z,45.95
2023-10-27T13:34:14.778Z,45.47
2023-10-27T13:37:18.507Z,45.68
2023-10-27T13:40:21.695Z,45.33
2023-10-27T13:43:26.158Z,45.55
2023-10-27T13:46:29.277Z,46.00
2023-10-27T13:49:33.772Z,45.92
2023-10-27T13:52:36.980Z,46.19
2023-10-27T13:55:45.480Z,45.50
2023-10-27T13:58:51.165Z,45.27
2023-10-27T14:01:54.524Z,45.98
2023-10-27T14:04:57.649Z,45.46
2023-10-27T14:08:00.840Z,45.55
2023-10-27T14:11:06.995Z,45.81
2023-10-27T14:14:13.324Z,45.48
2023-10-27T14:17:16.383Z,45.63
2023-10-27T14:20:21.698Z,45.55
2023-10-27T14:23:24.863Z,45.14
2023-10-27T14:26:28.011Z,45.22
2023-10-27T14:29:33.110Z,45.04
2023-10-27T14:32:38.131Z,45.02
2023-10-27T14:35:41.240Z,44.99
2023-10-27T14:38:45.828Z,45.15
2023-10-27T14:41:48.970Z,45.50
2023-10-27T14:44:55.173Z,44.82
2023-10-27T14:47:59.368Z,45.32
2023-10-27T14:51:04.028Z,45.43
2023-10-27T14:54:08.504Z,44.79
2023-10-27T14:57:11.606Z,45.09
2023-10-27T15:00:17.149Z,44.87
2023-10-27T15:03:20.341Z,45.09
2023-10-27T15:06:23.519Z,44.82
2023-10-27T15:09:26.667Z,44.58
2023-10-27T15:12:29.798Z,44.60
2023-10-27T15:15:34.322Z,44.36
2023-10-27T15:18:37.418Z,44.63
2023-10-27T15:21:40.613Z,44.08
2023-10-27T15:24:43.777Z,44.08
2023-10-27T15:27:47.000Z,44.18
2023-10-27T15:30:59.803Z,43.91
2023-10-27T15:34:04.145Z,44.38
2023-10-27T15:37:07.387Z,44.50
2023-10-27T15:40:14.861Z,44.20
2023-10-27T15:43:17.898Z,44.28
2023-10-27T15:46:22.312Z,43.67
2023-10-27T15:49:25.378Z,46.56
2023-10-27T15:52:28.476Z,47.43
2023-10-27T15:55:31.606Z,48.28
2023-10-27T15:58:35.060Z,49.25
2023-10-27T16:01:39.599Z,49.60
2023-10-27T16:04:42.814Z,47.79
2023-10-27T16:07:45.991Z,46.33
2023-10-27T16:10:49.117Z,45.37
2023-10-27T16:13:52.483Z,43.03
2023-10-27T16:16:57.134Z,43.66
2023-10-27T16:20:00.382Z,43.30
2023-10-27T16:23:04.321Z,42.95
2023-10-27T16:26:07.388Z,42.51
2023-10-27T16:29:10.421Z,42.71
2023-10-27T16:32:15.148Z,43.31
2023-10-27T16:35:18.713Z,42.73
2023-10-27T16:38:21.726Z,43.71
2023-10-27T16:41:24.840Z,43.99
2023-10-27T16:44:27.942Z,44.05
2023-10-27T16:47:32.533Z,43.92
2023-10-27T16:50:35.604Z,44.17
2023-10-27T16:53:39.232Z,44.41
2023-10-27T16:56:43.240Z,44.29
2023-10-27T16:59:47.830Z,44.17
2023-10-27T17:02:52.391Z,44.37
2023-10-27T17:05:55.740Z,43.82
2023-10-27T17:08:58.795Z,45.04
2023-10-27T17:12:02.135Z,44.90
2023-10-27T17:15:05.861Z,45.07
2023-10-27T17:18:10.395Z,45.01
2023-10-27T17:21:14.795Z,45.11
2023-10-27T17:24:19.261Z,44.92
2023-10-27T17:27:23.263Z,45.28
2023-10-27T17:30:26.461Z,44.99
2023-10-27T17:33:32.124Z,45.60
2023-10-27T17:36:39.210Z,45.29
2023-10-27T17:39:42.578Z,44.76
2023-10-27T17:42:46.354Z,45.24
2023-10-27T17:45:49.408Z,44.88
2023-10-27T17:48:53.900Z,44.86
2023-10-27T17:51:56.988Z,44.10
2023-10-27T17:55:00.355Z,43.97
2023-10-27T17:58:03.582Z,44.32
2023-10-27T18:01:08.481Z,44.79
2023-10-27T18:04:13.155Z,44.52
2023-10-27T18:07:16.310Z,44.46
2023-10-27T18:10:19.577Z,44.39
2023-10-27T18:13:22.659Z,44.46
2023-10-27T18:16:25.752Z,45.06
2023-10-27T18:19:30.297Z,44.71
2023-10-27T18:22:33.463Z,45.36
2023-10-27T18:25:36.878Z,45.01
2023-10-27T18:28:40.252Z,45.40
2023-10-27T18:31:44.022Z,45.22
2023-10-27T18:34:49.067Z,44.89
2023-10-27T18:37:52.650Z,45.38
2023-10-27T18:40:59.026Z,44.81
2023-10-27T18:44:02.330Z,44.96
2023-10-27T18:47:05.911Z,44.53
2023-10-27T18:50:11.113Z,44.76
2023-10-27T18:53:14.488Z,44.43
2023-10-27T18:56:18.174Z,44.41
2023-10-27T18:59:22.445Z,43.86
2023-10-27T19:02:25.511Z,43.61
2023-10-27T19:05:30.197Z,43.99
2023-10-27T19:08:34.184Z,43.99
2023-10-27T19:11:37.261Z,44.35
2023-10-27T19:14:40.308Z,44.19
2023-10-27T19:17:44.975Z,43.92
2023-10-27T19:20:49.697Z,44.48
2023-10-27T19:23:54.832Z,44.30
2023-10-27T19:26:57.884Z,44.37
2023-10-27T19:30:03.013Z,44.26
2023-10-27T19:33:06.246Z,44.51
2023-10-27T19:36:12.133Z,44.91
2023-10-27T19:39:18.449Z,45.05
2023-10-27T19:42:22.822Z,44.82
2023-10-27T19:45:25.907Z,44.66
2023-10-27T19:48:30.091Z,45.36
2023-10-27T19:51:34.714Z,45.33
2023-10-27T19:54:38.194Z,45.34
2023-10-27T19:57:41.263Z,45.58
2023-10-27T20:00:44.416Z,45.62
2023-10-27T20:03:49.103Z,45.64
2023-10-27T20:06:53.770Z,45.64
2023-10-27T20:09:57.021Z,45.73
2023-10-27T20:13:00.522Z,45.77
2023-10-27T20:16:04.070Z,45.44
2023-10-27T20:19:07.489Z,45.35
2023-10-27T20:22:11.971Z,45.35
2023-10-27T20:25:15.436Z,45.61
2023-10-27T20:28:18.531Z,46.00
2023-10-27T20:31:21.622Z,45.41
2023-10-27T20:34:25.989Z,45.80
2023-10-27T20:37:30.504Z,45.43
2023-10-27T20:40:33.622Z,45.86
2023-10-27T20:43:36.818Z,45.97
2023-10-27T20:46:40.626Z,45.48
2023-10-27T20:49:44.590Z,45.73
2023-10-27T20:52:49.505Z,45.24
2023-10-27T20:55:52.797Z,45.71
2023-10-27T20:58:55.965Z,45.25
2023-10-27T21:01:59.092Z,45.36
2023-10-27T21:05:02.383Z,45.28
2023-10-27T21:08:07.010Z,45.80
2023-10-27T21:11:10.660Z,45.11
2023-10-27T21:14:13.896Z,45.42
2023-10-27T21:17:17.870Z,45.31
2023-10-27T21:20:22.158Z,45.35
2023-10-27T21:23:27.220Z,45.58
2023-10-27T21:26:30.256Z,45.29
2023-10-27T21:29:33.489Z,45.60
2023-10-27T21:32:37.340Z,45.32
2023-10-27T21:35:40.528Z,45.49
2023-10-27T21:38:44.925Z,45.84
2023-10-27T21:41:48.005Z,46.10
2023-10-27T21:44:51.272Z,45.40
2023-10-27T21:47:55.293Z,45.94
2023-10-27T21:51:05.254Z,45.76
2023-10-27T21:54:09.870Z,45.53
2023-10-27T21:57:13.013Z,45.67
2023-10-27T22:00:29.930Z,45.51
2023-10-27T22:03:37.141Z,45.49
2023-10-27T22:06:40.428Z,45.80
2023-10-27T22:09:45.942Z,45.45
2023-10-27T22:12:49.594Z,45.73
2023-10-27T22:15:53.245Z,45.50
2023-10-27T22:18:56.724Z,45.49
2023-10-27T22:22:00.197Z,45.59
2023-10-27T22:25:04.748Z,45.60
2023-10-27T22:28:16.388Z,45.63
2023-10-27T22:31:21.662Z,45.54
2023-10-27T22:34:24.791Z,45.94
2023-10-27T22:37:27.934Z,45.85
2023-10-27T22:40:32.588Z,46.08
2023-10-27T22:43:35.728Z,46.22
2023-10-27T22:46:38.930Z,46.42
2023-10-27T22:49:42.100Z,46.03
2023-10-27T22:52:45.300Z,46.08
2023-10-27T22:55:49.843Z,46.34
2023-10-27T22:58:53.311Z,45.88
2023-10-27T23:01:56.461Z,46.42
2023-10-27T23:05:00.039Z,46.22
2023-10-27T23:08:05.795Z,45.85
2023-10-27T23:11:11.964Z,45.68
2023-10-27T23:14:15.031Z,46.36
2023-10-27T23:17:18.296Z,46.10
2023-10-27T23:20:22.924Z,46.28
2023-10-27T23:23:26.432Z,46.28
2023-10-27T23:26:31.510Z,45.82
2023-10-27T23:29:34.903Z,45.94
2023-10-27T23:32:38.152Z,46.39
2023-10-27T23:35:44.017Z,46.54
2023-10-27T23:38:47.324Z,46.01
2023-10-27T23:41:51.808Z,46.12
2023-10-27T23:44:56.147Z,46.03
2023-10-27T23:47:59.251Z,46.39
2023-10-27T23:51:03.627Z,46.04
2023-10-27T23:54:06.950Z,46.24
2023-10-27T23:57:11.364Z,46.34
